Terminal Aerodrome Forecast
Issued by NWS

Home | Current Version | Previous Version | Text Only | Print | Product List | Glossary On
Versions: 1 2 3 4 5 6 7 8 9 10 11 12 13 14 15
000
FTUS42 TJSJ 301100
TAFJSJ
TAF
TJSJ 301139Z 3012/3112 23005KT P6SM VCSH SCT025 SCT040
     FM301230 22008KT P6SM FEW030 SCT050
     FM301730 VRB10KT P6SM VCTS SCT025CB BKN050
      TEMPO 3018/3020 4SM TSRA BKN035CB
     FM302230 11005KT P6SM FEW025 SCT040=

USA.gov is the U.S. government's official web portal to all federal, state and local government web resources and services.